sensor_id;sensor_type;location;lat;lon;timestamp;P1;durP1;ratioP1;P2;durP2;ratioP2
22521;SDS011;11427;51.062;17.044;2022-10-31T00:01:50;21.20;;;13.88;;
22521;SDS011;11427;51.062;17.044;2022-10-31T00:16:52;26.05;;;17.33;;
22521;SDS011;11427;51.062;17.044;2022-10-31T00:31:54;19.42;;;14.55;;
22521;SDS011;11427;51.062;17.044;2022-10-31T00:46:56;22.73;;;15.85;;
22521;SDS011;11427;51.062;17.044;2022-10-31T01:01:58;18.85;;;13.15;;
22521;SDS011;11427;51.062;17.044;2022-10-31T01:17:00;19.50;;;12.98;;
22521;SDS011;11427;51.062;17.044;2022-10-31T01:32:02;21.15;;;13.55;;
22521;SDS011;11427;51.062;17.044;2022-10-31T01:47:05;22.33;;;14.77;;
22521;SDS011;11427;51.062;17.044;2022-10-31T02:02:15;18.80;;;12.38;;
22521;SDS011;11427;51.062;17.044;2022-10-31T02:17:18;18.63;;;12.50;;
22521;SDS011;11427;51.062;17.044;2022-10-31T02:47:34;22.48;;;12.63;;
22521;SDS011;11427;51.062;17.044;2022-10-31T03:18:17;20.10;;;14.38;;
22521;SDS011;11427;51.062;17.044;2022-10-31T03:33:28;18.85;;;12.35;;
22521;SDS011;11427;51.062;17.044;2022-10-31T03:48:34;18.88;;;12.00;;
22521;SDS011;11427;51.062;17.044;2022-10-31T04:03:36;16.50;;;11.38;;
22521;SDS011;11427;51.062;17.044;2022-10-31T04:18:40;18.50;;;11.63;;
22521;SDS011;11427;51.062;17.044;2022-10-31T04:33:42;19.25;;;12.40;;
22521;SDS011;11427;51.062;17.044;2022-10-31T04:48:44;17.27;;;11.27;;
22521;SDS011;11427;51.062;17.044;2022-10-31T05:03:46;19.08;;;12.15;;
22521;SDS011;11427;51.062;17.044;2022-10-31T05:18:48;16.40;;;12.02;;
22521;SDS011;11427;51.062;17.044;2022-10-31T05:33:49;17.20;;;10.45;;
22521;SDS011;11427;51.062;17.044;2022-10-31T05:48:52;14.68;;;9.60;;
22521;SDS011;11427;51.062;17.044;2022-10-31T06:03:56;19.05;;;11.35;;
22521;SDS011;11427;51.062;17.044;2022-10-31T06:18:58;16.33;;;10.93;;
22521;SDS011;11427;51.062;17.044;2022-10-31T06:34:00;12.43;;;9.30;;
22521;SDS011;11427;51.062;17.044;2022-10-31T06:49:02;11.57;;;8.85;;
22521;SDS011;11427;51.062;17.044;2022-10-31T07:04:04;11.82;;;8.25;;
22521;SDS011;11427;51.062;17.044;2022-10-31T07:19:06;17.40;;;10.07;;
22521;SDS011;11427;51.062;17.044;2022-10-31T07:34:08;19.35;;;10.85;;
22521;SDS011;11427;51.062;17.044;2022-10-31T07:49:10;12.48;;;9.02;;
22521;SDS011;11427;51.062;17.044;2022-10-31T08:18:44;8.88;;;5.95;;
22521;SDS011;11427;51.062;17.044;2022-10-31T08:33:45;14.65;;;10.15;;
22521;SDS011;11427;51.062;17.044;2022-10-31T08:48:48;12.77;;;8.63;;
22521;SDS011;11427;51.062;17.044;2022-10-31T09:03:50;11.05;;;6.13;;
22521;SDS011;11427;51.062;17.044;2022-10-31T09:18:52;10.85;;;5.32;;
22521;SDS011;11427;51.062;17.044;2022-10-31T09:33:54;9.40;;;5.07;;
22521;SDS011;11427;51.062;17.044;2022-10-31T10:19:45;8.20;;;4.68;;
22521;SDS011;11427;51.062;17.044;2022-10-31T10:51:04;7.32;;;4.72;;
22521;SDS011;11427;51.062;17.044;2022-10-31T11:06:31;12.25;;;5.63;;
22521;SDS011;11427;51.062;17.044;2022-10-31T11:21:33;7.13;;;4.70;;
22521;SDS011;11427;51.062;17.044;2022-10-31T11:36:37;9.98;;;5.20;;
22521;SDS011;11427;51.062;17.044;2022-10-31T11:51:40;8.32;;;4.55;;
22521;SDS011;11427;51.062;17.044;2022-10-31T12:06:43;11.25;;;4.13;;
22521;SDS011;11427;51.062;17.044;2022-10-31T12:21:54;7.97;;;4.20;;
22521;SDS011;11427;51.062;17.044;2022-10-31T13:08:28;10.13;;;5.68;;
22521;SDS011;11427;51.062;17.044;2022-10-31T13:23:37;7.20;;;4.10;;
22521;SDS011;11427;51.062;17.044;2022-10-31T13:38:58;8.88;;;4.93;;
22521;SDS011;11427;51.062;17.044;2022-10-31T14:09:35;3.47;;;3.00;;
22521;SDS011;11427;51.062;17.044;2022-10-31T14:24:40;4.93;;;3.38;;
22521;SDS011;11427;51.062;17.044;2022-10-31T14:39:57;4.25;;;3.60;;
22521;SDS011;11427;51.062;17.044;2022-10-31T14:55:23;5.53;;;4.22;;
22521;SDS011;11427;51.062;17.044;2022-10-31T15:10:27;4.68;;;4.10;;
22521;SDS011;11427;51.062;17.044;2022-10-31T15:25:33;7.65;;;5.68;;
22521;SDS011;11427;51.062;17.044;2022-10-31T15:40:36;11.57;;;7.97;;
22521;SDS011;11427;51.062;17.044;2022-10-31T15:55:38;7.97;;;5.72;;
22521;SDS011;11427;51.062;17.044;2022-10-31T16:10:57;8.73;;;6.20;;
22521;SDS011;11427;51.062;17.044;2022-10-31T16:26:05;14.68;;;8.32;;
22521;SDS011;11427;51.062;17.044;2022-10-31T16:41:07;7.47;;;6.20;;
22521;SDS011;11427;51.062;17.044;2022-10-31T16:56:33;11.45;;;8.02;;
22521;SDS011;11427;51.062;17.044;2022-10-31T17:11:34;27.30;;;17.92;;
22521;SDS011;11427;51.062;17.044;2022-10-31T17:26:36;59.65;;;29.52;;
22521;SDS011;11427;51.062;17.044;2022-10-31T17:41:38;34.85;;;22.45;;
22521;SDS011;11427;51.062;17.044;2022-10-31T17:56:40;37.20;;;24.38;;
22521;SDS011;11427;51.062;17.044;2022-10-31T18:11:42;30.10;;;21.33;;
22521;SDS011;11427;51.062;17.044;2022-10-31T18:26:44;26.55;;;19.10;;
22521;SDS011;11427;51.062;17.044;2022-10-31T18:41:46;35.83;;;23.38;;
22521;SDS011;11427;51.062;17.044;2022-10-31T18:56:48;31.85;;;20.92;;
22521;SDS011;11427;51.062;17.044;2022-10-31T19:11:50;43.40;;;27.67;;
22521;SDS011;11427;51.062;17.044;2022-10-31T19:26:52;35.88;;;24.73;;
22521;SDS011;11427;51.062;17.044;2022-10-31T19:41:54;32.13;;;22.27;;
22521;SDS011;11427;51.062;17.044;2022-10-31T19:56:56;26.45;;;18.23;;
22521;SDS011;11427;51.062;17.044;2022-10-31T20:11:58;38.78;;;27.27;;
22521;SDS011;11427;51.062;17.044;2022-10-31T20:27:00;40.00;;;27.35;;
22521;SDS011;11427;51.062;17.044;2022-10-31T20:42:04;41.97;;;29.48;;
22521;SDS011;11427;51.062;17.044;2022-10-31T20:57:06;45.75;;;31.73;;
22521;SDS011;11427;51.062;17.044;2022-10-31T21:12:09;55.15;;;38.50;;
22521;SDS011;11427;51.062;17.044;2022-10-31T21:27:11;59.83;;;38.35;;
22521;SDS011;11427;51.062;17.044;2022-10-31T21:42:13;64.65;;;42.83;;
22521;SDS011;11427;51.062;17.044;2022-10-31T21:57:20;61.13;;;39.65;;
22521;SDS011;11427;51.062;17.044;2022-10-31T22:12:27;59.38;;;37.13;;
22521;SDS011;11427;51.062;17.044;2022-10-31T22:27:29;46.60;;;29.80;;
22521;SDS011;11427;51.062;17.044;2022-10-31T22:42:31;46.65;;;34.28;;
22521;SDS011;11427;51.062;17.044;2022-10-31T22:57:36;45.08;;;33.63;;
22521;SDS011;11427;51.062;17.044;2022-10-31T23:12:42;45.17;;;32.30;;
22521;SDS011;11427;51.062;17.044;2022-10-31T23:28:04;51.17;;;37.00;;
22521;SDS011;11427;51.062;17.044;2022-10-31T23:43:08;47.05;;;33.63;;
22521;SDS011;11427;51.062;17.044;2022-10-31T23:58:12;34.03;;;27.88;;
